createdAt,value
2022-09-02T00:02:25.497Z,15.90
2022-09-02T00:04:53.031Z,15.80
2022-09-02T00:07:20.592Z,15.80
2022-09-02T00:09:49.128Z,15.70
2022-09-02T00:12:17.022Z,15.70
2022-09-02T00:14:44.614Z,15.70
2022-09-02T00:17:12.957Z,15.80
2022-09-02T00:19:40.561Z,15.80
2022-09-02T00:22:08.134Z,15.80
2022-09-02T00:24:35.708Z,15.80
2022-09-02T00:27:03.292Z,15.70
2022-09-02T00:29:30.858Z,15.60
2022-09-02T00:31:58.497Z,15.60
2022-09-02T00:34:26.813Z,15.70
2022-09-02T00:36:54.396Z,15.70
2022-09-02T00:39:21.980Z,15.70
2022-09-02T00:41:49.624Z,15.60
2022-09-02T00:44:17.188Z,15.50
2022-09-02T00:46:44.773Z,15.50
2022-09-02T00:49:17.912Z,15.40
2022-09-02T00:51:45.474Z,15.40
2022-09-02T00:54:13.817Z,15.30
2022-09-02T00:56:41.488Z,15.30
2022-09-02T00:59:09.065Z,15.20
2022-09-02T01:01:37.542Z,15.70
2022-09-02T01:04:04.992Z,15.70
2022-09-02T01:06:32.577Z,15.70
2022-09-02T01:09:03.617Z,15.50
2022-09-02T01:11:31.988Z,15.50
2022-09-02T01:14:00.331Z,15.40
2022-09-02T01:16:27.985Z,15.40
2022-09-02T01:18:55.866Z,15.40
2022-09-02T01:21:23.439Z,15.40
2022-09-02T01:23:51.012Z,15.30
2022-09-02T01:26:19.384Z,15.60
2022-09-02T01:28:47.757Z,15.50
2022-09-02T01:31:15.388Z,15.50
2022-09-02T01:33:43.443Z,15.40
2022-09-02T01:36:10.488Z,15.40
2022-09-02T01:38:38.072Z,15.40
2022-09-02T01:41:05.656Z,15.40
2022-09-02T01:43:33.998Z,15.50
2022-09-02T01:46:01.583Z,15.50
2022-09-02T01:48:30.156Z,15.50
2022-09-02T01:51:00.188Z,15.40
2022-09-02T01:53:27.731Z,15.40
2022-09-02T01:55:55.346Z,15.30
2022-09-02T01:58:22.933Z,15.30
2022-09-02T02:00:50.574Z,15.20
2022-09-02T02:03:18.127Z,15.20
2022-09-02T02:05:46.449Z,15.20
2022-09-02T02:08:14.043Z,15.10
2022-09-02T02:10:42.419Z,15.30
2022-09-02T02:13:10.776Z,15.30
2022-09-02T02:15:41.343Z,15.30
2022-09-02T02:18:08.957Z,15.30
2022-09-02T02:20:36.522Z,15.50
2022-09-02T02:23:04.105Z,15.40
2022-09-02T02:25:32.496Z,15.80
2022-09-02T02:28:00.101Z,15.80
2022-09-02T02:30:27.646Z,15.70
2022-09-02T02:32:55.229Z,15.60
2022-09-02T02:35:22.806Z,15.50
2022-09-02T02:37:50.377Z,15.40
2022-09-02T02:40:18.782Z,15.50
2022-09-02T02:42:46.324Z,15.50
2022-09-02T02:45:15.113Z,15.30
2022-09-02T02:47:42.272Z,15.30
2022-09-02T02:50:09.951Z,15.20
2022-09-02T02:52:37.538Z,15.20
2022-09-02T02:55:05.198Z,15.10
2022-09-02T02:57:32.821Z,15.10
2022-09-02T03:00:00.380Z,15.00
2022-09-02T03:02:28.139Z,15.20
2022-09-02T03:04:55.553Z,15.20
2022-09-02T03:07:23.138Z,15.10
2022-09-02T03:11:17.633Z,15.40
2022-09-02T03:13:45.996Z,15.50
2022-09-02T03:16:13.626Z,15.50
2022-09-02T03:18:41.194Z,15.40
2022-09-02T03:21:08.767Z,15.20
2022-09-02T03:23:36.341Z,15.10
2022-09-02T03:26:06.436Z,15.10
2022-09-02T03:28:34.020Z,15.00
2022-09-02T03:31:01.672Z,15.00
2022-09-02T03:33:29.207Z,15.10
2022-09-02T03:35:56.772Z,15.00
2022-09-02T03:38:24.346Z,14.90
2022-09-02T03:40:52.049Z,15.00
2022-09-02T03:43:19.656Z,15.20
2022-09-02T03:45:47.989Z,15.40
2022-09-02T03:48:15.573Z,15.40
2022-09-02T03:50:43.142Z,15.30
2022-09-02T03:53:19.452Z,15.30
2022-09-02T03:55:39.216Z,15.20
2022-09-02T03:58:08.670Z,15.00
2022-09-02T04:00:35.132Z,15.00
2022-09-02T04:03:02.754Z,14.90
2022-09-02T04:05:31.068Z,14.70
2022-09-02T04:07:58.653Z,14.70
2022-09-02T04:10:26.248Z,14.60
2022-09-02T04:12:53.830Z,14.50
2022-09-02T04:15:21.414Z,14.40
2022-09-02T04:17:49.008Z,14.30
2022-09-02T04:20:17.362Z,14.20
2022-09-02T04:22:44.934Z,14.20
2022-09-02T04:25:13.305Z,14.00
2022-09-02T04:27:40.889Z,14.00
2022-09-02T04:30:08.552Z,14.00
2022-09-02T04:32:40.488Z,13.90
2022-09-02T04:35:03.733Z,13.90
2022-09-02T04:37:31.306Z,13.90
2022-09-02T04:39:58.909Z,13.80
2022-09-02T04:42:26.790Z,13.80
2022-09-02T04:44:54.372Z,13.80
2022-09-02T04:47:21.965Z,13.70
2022-09-02T04:49:50.305Z,13.60
2022-09-02T04:52:17.890Z,13.60
2022-09-02T04:54:46.460Z,13.60
2022-09-02T04:57:14.033Z,13.80
2022-09-02T04:59:41.612Z,13.80
2022-09-02T05:02:10.398Z,13.70
2022-09-02T05:04:37.908Z,13.70
2022-09-02T05:07:05.492Z,13.70
2022-09-02T05:09:33.107Z,13.60
2022-09-02T05:12:00.677Z,13.60
2022-09-02T05:14:28.253Z,13.80
2022-09-02T05:16:55.857Z,13.80
2022-09-02T05:19:24.199Z,13.70
2022-09-02T05:21:51.784Z,13.70
2022-09-02T05:24:24.495Z,13.70
2022-09-02T05:26:48.497Z,13.70
2022-09-02T05:29:16.076Z,13.70
2022-09-02T05:31:43.698Z,13.70
2022-09-02T05:34:11.269Z,13.70
2022-09-02T05:36:38.893Z,14.00
2022-09-02T05:39:06.822Z,14.00
2022-09-02T05:41:34.385Z,14.00
2022-09-02T05:44:03.615Z,14.00
2022-09-02T05:46:29.639Z,14.00
2022-09-02T05:49:06.494Z,14.20
2022-09-02T05:51:43.281Z,14.50
2022-09-02T05:54:11.657Z,14.70
2022-09-02T05:56:39.207Z,14.70
2022-09-02T05:59:06.821Z,14.70
2022-09-02T06:01:34.423Z,14.70
2022-09-02T06:04:01.984Z,14.60
2022-09-02T06:06:29.587Z,14.60
2022-09-02T06:08:57.152Z,14.60
2022-09-02T06:11:24.727Z,14.80
2022-09-02T06:13:52.369Z,14.80
2022-09-02T06:16:20.022Z,14.80
2022-09-02T06:18:47.529Z,14.80
2022-09-02T06:21:15.142Z,14.80
2022-09-02T06:23:42.718Z,14.90
2022-09-02T06:26:10.299Z,14.90
2022-09-02T06:28:37.942Z,14.90
2022-09-02T06:31:11.184Z,15.00
2022-09-02T06:33:38.701Z,15.10
2022-09-02T06:36:06.326Z,15.20
2022-09-02T06:38:33.909Z,15.30
2022-09-02T06:41:01.484Z,15.40
2022-09-02T06:43:29.107Z,15.50
2022-09-02T06:45:56.770Z,15.50
2022-09-02T06:48:24.264Z,15.70
2022-09-02T06:50:51.878Z,15.70
2022-09-02T06:53:20.267Z,16.00
2022-09-02T06:55:47.814Z,16.00
2022-09-02T06:58:16.185Z,16.20
2022-09-02T07:00:44.527Z,16.30
2022-09-02T07:03:30.100Z,16.30
2022-09-02T07:06:09.510Z,16.40
2022-09-02T07:08:40.233Z,16.50
2022-09-02T07:11:07.808Z,16.60
2022-09-02T07:13:35.382Z,16.70
2022-09-02T07:16:02.987Z,16.80
2022-09-02T07:18:31.348Z,17.00
2022-09-02T07:20:58.912Z,17.00
2022-09-02T07:23:26.515Z,17.10
2022-09-02T07:25:54.099Z,17.20
2022-09-02T07:28:21.664Z,17.30
2022-09-02T07:30:49.310Z,17.40
2022-09-02T07:33:17.713Z,17.60
2022-09-02T07:35:45.193Z,17.60
2022-09-02T07:38:12.807Z,17.70
2022-09-02T07:40:40.445Z,17.80
2022-09-02T07:43:07.975Z,17.90
2022-09-02T07:45:35.619Z,18.00
2022-09-02T07:48:03.154Z,18.10
2022-09-02T07:50:30.739Z,18.30
2022-09-02T07:52:58.383Z,18.30
2022-09-02T07:55:25.954Z,18.40
2022-09-02T07:57:53.518Z,18.70
2022-09-02T08:00:21.122Z,19.10
2022-09-02T08:02:48.812Z,19.10
2022-09-02T08:05:16.296Z,19.30
2022-09-02T08:07:44.264Z,19.40
2022-09-02T08:10:11.829Z,19.40
2022-09-02T08:12:39.413Z,19.70
2022-09-02T08:15:07.844Z,19.70
2022-09-02T08:17:35.418Z,19.70
2022-09-02T08:20:03.004Z,19.80
2022-09-02T08:25:01.084Z,19.90
2022-09-02T08:27:28.688Z,19.90
2022-09-02T08:29:57.059Z,20.30
2022-09-02T08:32:24.643Z,20.20
2022-09-02T08:34:52.219Z,20.30
2022-09-02T08:37:19.821Z,20.40
2022-09-02T08:39:51.058Z,20.80
2022-09-02T08:42:21.773Z,20.70
2022-09-02T08:44:49.397Z,20.90
2022-09-02T08:47:16.960Z,21.00
2022-09-02T08:49:44.544Z,21.20
2022-09-02T08:52:17.180Z,21.30
2022-09-02T08:54:42.410Z,21.40
2022-09-02T08:57:09.984Z,21.60
2022-09-02T08:59:37.698Z,21.60
2022-09-02T09:02:17.817Z,21.70
2022-09-02T09:04:51.195Z,21.70
2022-09-02T09:10:19.276Z,21.80
2022-09-02T09:12:52.182Z,22.10
2022-09-02T09:15:38.118Z,22.20
2022-09-02T09:18:05.692Z,22.20
2022-09-02T09:20:33.275Z,22.50
2022-09-02T09:23:00.879Z,22.50
2022-09-02T09:25:32.007Z,22.50
2022-09-02T09:28:00.349Z,22.60
2022-09-02T09:30:27.953Z,22.50
2022-09-02T09:32:55.538Z,22.60
2022-09-02T09:35:23.112Z,22.70
2022-09-02T09:37:56.410Z,22.80
2022-09-02T09:40:24.031Z,22.80
2022-09-02T09:45:37.806Z,22.90
2022-09-02T09:48:11.200Z,22.90
2022-09-02T09:50:38.791Z,22.90
2022-09-02T09:53:27.552Z,22.90
2022-09-02T09:55:57.996Z,23.00
2022-09-02T09:58:28.496Z,22.90
2022-09-02T10:00:56.485Z,23.10
2022-09-02T10:03:24.040Z,23.20
2022-09-02T10:05:54.282Z,23.30
2022-09-02T10:08:21.893Z,23.40
2022-09-02T10:11:01.199Z,23.50
2022-09-02T10:13:32.283Z,23.80
2022-09-02T10:16:05.597Z,23.80
2022-09-02T10:18:33.142Z,23.90
2022-09-02T10:21:17.392Z,23.90
2022-09-02T10:24:08.789Z,24.00
2022-09-02T10:26:39.493Z,24.10
2022-09-02T10:29:10.375Z,24.20
2022-09-02T10:31:53.856Z,24.20
2022-09-02T10:34:39.513Z,24.30
2022-09-02T10:37:22.387Z,24.40
2022-09-02T10:40:08.116Z,24.40
2022-09-02T10:42:44.711Z,24.60
2022-09-02T10:45:25.116Z,24.70
2022-09-02T10:48:11.397Z,24.70
2022-09-02T10:50:41.452Z,24.70
2022-09-02T10:53:11.832Z,24.80
2022-09-02T10:55:57.750Z,24.80
2022-09-02T10:58:43.678Z,25.10
2022-09-02T11:01:11.367Z,25.10
2022-09-02T11:03:41.774Z,25.10
2022-09-02T11:06:14.798Z,25.30
2022-09-02T11:08:54.502Z,25.30
2022-09-02T11:11:40.361Z,25.20
2022-09-02T11:14:32.929Z,25.20
2022-09-02T11:17:05.916Z,25.40
2022-09-02T11:19:35.951Z,25.40
2022-09-02T11:22:04.293Z,25.60
2022-09-02T11:24:31.866Z,25.60
2022-09-02T11:27:02.640Z,25.50
2022-09-02T11:30:00.560Z,25.50
2022-09-02T11:32:39.792Z,25.70
2022-09-02T11:35:07.396Z,25.70
2022-09-02T11:37:47.750Z,26.00
2022-09-02T11:40:36.083Z,26.00
2022-09-02T11:43:25.542Z,26.00
2022-09-02T11:45:58.832Z,26.10
2022-09-02T11:48:27.100Z,26.10
2022-09-02T11:51:06.302Z,26.00
2022-09-02T11:53:39.578Z,26.00
2022-09-02T11:56:19.105Z,26.00
2022-09-02T11:58:47.458Z,25.90
2022-09-02T12:01:30.223Z,25.90
2022-09-02T12:06:28.133Z,25.90
2022-09-02T12:08:55.657Z,25.90
2022-09-02T12:11:41.326Z,26.00
2022-09-02T12:14:09.719Z,26.10
2022-09-02T12:16:37.356Z,26.10
2022-09-02T12:19:04.885Z,26.10
2022-09-02T12:21:32.501Z,26.10
2022-09-02T12:24:00.135Z,26.20
2022-09-02T12:26:31.507Z,26.40
2022-09-02T12:29:11.214Z,26.40
2022-09-02T12:31:48.010Z,26.40
2022-09-02T12:34:21.313Z,26.50
2022-09-02T12:36:52.549Z,26.40
2022-09-02T12:39:23.949Z,26.50
2022-09-02T12:41:55.304Z,26.40
2022-09-02T12:44:47.474Z,26.50
2022-09-02T12:47:23.998Z,26.60
2022-09-02T12:50:06.548Z,26.90
2022-09-02T12:52:52.693Z,26.90
2022-09-02T12:55:20.274Z,26.90
2022-09-02T12:57:47.837Z,26.90
2022-09-02T13:00:15.460Z,26.90
2022-09-02T13:02:45.783Z,26.90
2022-09-02T13:05:43.603Z,27.10
2022-09-02T13:08:41.630Z,27.10
2022-09-02T13:11:46.147Z,27.10
2022-09-02T13:14:28.765Z,27.30
2022-09-02T13:17:36.134Z,27.40
2022-09-02T13:20:02.818Z,27.40
2022-09-02T13:22:52.106Z,27.30
2022-09-02T13:25:29.219Z,27.30
2022-09-02T13:28:15.165Z,27.30
2022-09-02T13:31:07.249Z,27.40
2022-09-02T13:33:36.042Z,27.40
2022-09-02T13:36:02.434Z,27.40
2022-09-02T13:38:30.099Z,27.40
2022-09-02T13:40:57.638Z,27.40
2022-09-02T13:43:26.168Z,27.50
2022-09-02T13:45:52.911Z,27.50
2022-09-02T13:48:24.533Z,27.80
2022-09-02T13:50:52.014Z,27.80
2022-09-02T13:54:05.501Z,27.90
2022-09-02T13:55:58.175Z,27.80
2022-09-02T13:58:31.538Z,27.90
2022-09-02T14:01:02.271Z,27.90
2022-09-02T14:03:28.443Z,27.90
2022-09-02T14:05:55.665Z,27.90
2022-09-02T14:08:23.399Z,27.90
2022-09-02T14:10:50.883Z,28.00
2022-09-02T14:13:18.455Z,28.00
2022-09-02T14:15:46.158Z,28.00
2022-09-02T14:18:18.091Z,28.10
2022-09-02T14:21:11.801Z,28.30
2022-09-02T14:23:39.384Z,28.30
2022-09-02T14:26:06.971Z,28.20
2022-09-02T14:28:35.139Z,28.20
2022-09-02T14:31:03.606Z,28.20
2022-09-02T14:33:37.049Z,28.20
2022-09-02T14:36:08.316Z,28.20
2022-09-02T14:38:35.881Z,28.20
2022-09-02T14:41:18.546Z,28.30
2022-09-02T14:43:48.806Z,28.30
2022-09-02T14:46:25.558Z,28.40
2022-09-02T14:48:53.125Z,28.40
2022-09-02T14:51:21.456Z,28.50
2022-09-02T14:53:49.070Z,28.50
2022-09-02T14:56:16.651Z,28.50
2022-09-02T14:58:44.620Z,28.60
2022-09-02T15:01:13.291Z,28.70
2022-09-02T15:03:40.755Z,28.70
2022-09-02T15:06:13.144Z,29.00
2022-09-02T15:08:36.690Z,29.00
2022-09-02T15:11:04.276Z,29.00
2022-09-02T15:13:34.666Z,29.20
2022-09-02T15:16:03.209Z,29.30
2022-09-02T15:18:31.408Z,29.30
2022-09-02T15:20:59.745Z,29.50
2022-09-02T15:23:27.371Z,29.50
2022-09-02T15:25:55.697Z,29.50
2022-09-02T15:28:23.259Z,29.40
2022-09-02T15:30:50.910Z,29.50
2022-09-02T15:33:18.562Z,29.50
2022-09-02T15:35:46.049Z,29.60
2022-09-02T15:38:13.671Z,29.50
2022-09-02T15:40:41.253Z,29.70
2022-09-02T15:43:08.838Z,29.60
2022-09-02T15:45:39.925Z,29.80
2022-09-02T15:48:07.508Z,29.80
2022-09-02T15:50:35.093Z,29.80
2022-09-02T15:53:03.486Z,29.90
2022-09-02T15:55:34.880Z,29.90
2022-09-02T15:58:02.474Z,29.90
2022-09-02T16:00:30.166Z,29.80
2022-09-02T16:03:00.395Z,29.40
2022-09-02T16:05:27.920Z,29.40
2022-09-02T16:07:56.311Z,29.30
2022-09-02T16:10:24.652Z,29.20
2022-09-02T16:12:52.223Z,29.20
2022-09-02T16:15:19.843Z,29.10
2022-09-02T16:17:47.428Z,29.20
2022-09-02T16:20:19.158Z,29.40
2022-09-02T16:22:42.605Z,29.30
2022-09-02T16:25:10.176Z,29.20
2022-09-02T16:27:53.079Z,29.30
2022-09-02T16:30:20.627Z,29.20
2022-09-02T16:32:48.165Z,29.10
2022-09-02T16:35:15.780Z,29.00
2022-09-02T16:37:43.457Z,29.20
2022-09-02T16:40:11.848Z,29.10
2022-09-02T16:42:39.695Z,29.00
2022-09-02T16:45:09.227Z,28.80
2022-09-02T16:47:36.859Z,28.80
2022-09-02T16:50:04.480Z,28.70
2022-09-02T16:52:32.084Z,28.80
2022-09-02T16:54:59.609Z,28.70
2022-09-02T16:57:27.239Z,28.60
2022-09-02T16:59:54.804Z,28.40
2022-09-02T17:02:23.193Z,28.30
2022-09-02T17:04:50.746Z,28.30
2022-09-02T17:07:19.083Z,28.20
2022-09-02T17:09:46.658Z,28.10
2022-09-02T17:12:14.631Z,28.00
2022-09-02T17:14:42.185Z,27.80
2022-09-02T17:17:09.797Z,27.60
2022-09-02T17:19:37.373Z,27.40
2022-09-02T17:22:04.947Z,27.30
2022-09-02T17:24:32.521Z,27.10
2022-09-02T17:27:00.129Z,27.00
2022-09-02T17:31:55.264Z,26.70
2022-09-02T17:34:22.924Z,26.60
2022-09-02T17:36:50.503Z,26.40
2022-09-02T17:39:18.106Z,26.30
2022-09-02T17:41:54.724Z,26.20
2022-09-02T17:44:22.304Z,26.10
2022-09-02T17:46:49.891Z,26.20
2022-09-02T17:49:17.974Z,26.10
2022-09-02T17:51:45.133Z,25.90
2022-09-02T17:54:13.472Z,25.70
2022-09-02T17:57:09.098Z,25.60
2022-09-02T18:00:04.261Z,25.50
2022-09-02T18:02:55.417Z,25.70
2022-09-02T18:05:28.857Z,25.60
2022-09-02T18:08:03.601Z,25.60
2022-09-02T18:10:34.104Z,25.40
2022-09-02T18:13:04.585Z,25.30
2022-09-02T18:15:32.223Z,25.40
2022-09-02T18:17:59.799Z,25.30
2022-09-02T18:20:27.531Z,25.40
2022-09-02T18:23:25.333Z,25.30
2022-09-02T18:26:29.848Z,25.10
2022-09-02T18:29:06.269Z,24.90
2022-09-02T18:31:40.362Z,24.50
2022-09-02T18:34:14.343Z,24.40
2022-09-02T18:37:06.334Z,24.40
2022-09-02T18:40:11.166Z,24.40
2022-09-02T18:43:02.765Z,24.50
2022-09-02T18:45:34.209Z,24.30
2022-09-02T18:48:13.831Z,24.20
2022-09-02T18:50:57.123Z,24.20
2022-09-02T18:53:09.256Z,24.30
2022-09-02T18:55:36.842Z,24.20
2022-09-02T18:58:08.189Z,24.00
2022-09-02T19:00:35.734Z,24.00
2022-09-02T19:03:03.303Z,24.00
2022-09-02T19:05:30.915Z,23.90
2022-09-02T19:08:22.329Z,23.80
2022-09-02T19:10:49.949Z,23.70
2022-09-02T19:13:18.302Z,23.50
2022-09-02T19:15:45.885Z,23.50
2022-09-02T19:18:13.489Z,23.50
2022-09-02T19:20:41.049Z,23.40
2022-09-02T19:23:08.706Z,23.30
2022-09-02T19:25:36.341Z,23.20
2022-09-02T19:28:04.672Z,23.00
2022-09-02T19:30:32.260Z,23.00
2022-09-02T19:32:59.875Z,22.90
2022-09-02T19:35:27.458Z,23.10
2022-09-02T19:37:55.081Z,23.00
2022-09-02T19:40:28.618Z,22.90
2022-09-02T19:42:56.192Z,22.80
2022-09-02T19:45:23.827Z,22.80
2022-09-02T19:48:08.826Z,22.60
2022-09-02T19:50:20.509Z,22.60
2022-09-02T19:52:48.083Z,22.50
2022-09-02T19:55:16.546Z,22.50
2022-09-02T19:57:44.160Z,22.40
2022-09-02T20:00:11.743Z,22.40
2022-09-02T20:02:42.181Z,22.40
2022-09-02T20:05:09.743Z,22.40
2022-09-02T20:07:37.317Z,22.30
2022-09-02T20:10:04.940Z,22.30
2022-09-02T20:12:32.520Z,22.40
2022-09-02T20:15:02.830Z,22.40
2022-09-02T20:17:30.461Z,22.30
2022-09-02T20:19:58.040Z,22.20
2022-09-02T20:22:25.617Z,22.20
2022-09-02T20:24:54.500Z,22.10
2022-09-02T20:27:24.949Z,22.00
2022-09-02T20:29:52.523Z,22.00
2022-09-02T20:32:41.966Z,22.10
2022-09-02T20:35:15.062Z,22.10
2022-09-02T20:37:50.190Z,22.00
2022-09-02T20:40:33.829Z,22.00
2022-09-02T20:43:04.292Z,21.90
2022-09-02T20:45:37.388Z,21.80
2022-09-02T20:48:24.692Z,21.70
2022-09-02T20:51:01.223Z,21.70
2022-09-02T20:53:55.600Z,21.60
2022-09-02T20:56:26.600Z,21.60
2022-09-02T20:58:59.536Z,21.50
2022-09-02T21:01:32.777Z,21.80
2022-09-02T21:04:04.348Z,21.60
2022-09-02T21:06:35.878Z,21.60
2022-09-02T21:09:20.258Z,21.60
2022-09-02T21:11:50.540Z,21.50
2022-09-02T21:14:18.124Z,21.50
2022-09-02T21:16:55.033Z,21.40
2022-09-02T21:19:34.963Z,21.40
2022-09-02T21:22:20.606Z,21.40
2022-09-02T21:24:59.773Z,21.30
2022-09-02T21:27:27.391Z,21.30
2022-09-02T21:30:07.145Z,21.50
2022-09-02T21:32:37.566Z,21.50
2022-09-02T21:35:20.282Z,21.60
2022-09-02T21:37:47.910Z,21.80
2022-09-02T21:40:18.192Z,21.90
2022-09-02T21:43:04.947Z,21.90
2022-09-02T21:45:35.346Z,21.90
2022-09-02T21:48:27.476Z,21.70
2022-09-02T21:50:55.051Z,21.60
2022-09-02T21:53:22.624Z,21.40
2022-09-02T21:56:08.296Z,21.30
2022-09-02T21:59:09.465Z,21.30
2022-09-02T22:01:46.367Z,21.20
2022-09-02T22:04:43.995Z,21.10
2022-09-02T22:07:21.209Z,21.00
2022-09-02T22:09:51.264Z,20.90
2022-09-02T22:12:19.607Z,20.80
2022-09-02T22:14:59.033Z,20.80
2022-09-02T22:17:35.193Z,20.70
2022-09-02T22:20:02.783Z,20.70
2022-09-02T22:22:30.419Z,20.70
2022-09-02T22:24:58.020Z,20.90
2022-09-02T22:27:32.489Z,21.10
2022-09-02T22:30:06.367Z,21.00
2022-09-02T22:32:36.848Z,21.00
2022-09-02T22:35:19.172Z,20.90
2022-09-02T22:37:50.039Z,20.80
2022-09-02T22:40:18.342Z,20.70
2022-09-02T22:42:46.241Z,20.70
2022-09-02T22:45:37.840Z,20.70
2022-09-02T22:48:29.993Z,20.60
2022-09-02T22:51:18.961Z,20.50
2022-09-02T22:53:43.964Z,20.30
2022-09-02T22:56:13.565Z,20.40
2022-09-02T22:58:51.872Z,20.30
2022-09-02T23:01:25.545Z,20.30
2022-09-02T23:03:53.084Z,20.50
2022-09-02T23:06:26.623Z,20.40
2022-09-02T23:08:56.846Z,20.30
2022-09-02T23:11:27.551Z,20.30
2022-09-02T23:14:17.309Z,20.10
2022-09-02T23:17:22.053Z,20.10
2022-09-02T23:19:55.681Z,20.00
2022-09-02T23:22:34.993Z,19.90
2022-09-02T23:25:14.482Z,19.80
2022-09-02T23:27:48.427Z,19.70
2022-09-02T23:30:15.999Z,19.70
2022-09-02T23:33:21.624Z,19.60
2022-09-02T23:36:13.183Z,19.60
2022-09-02T23:38:55.906Z,19.50
2022-09-02T23:41:23.480Z,19.40
2022-09-02T23:43:51.054Z,19.40
2022-09-02T23:46:55.985Z,19.80
2022-09-02T23:49:38.180Z,19.80
2022-09-02T23:52:27.939Z,19.60
2022-09-02T23:55:07.603Z,19.60
2022-09-02T23:57:43.894Z,19.50
